createdAt,value
2018-09-03T00:00:51.925Z,9.65
2018-09-03T00:15:50.808Z,10.25
2018-09-03T00:30:50.280Z,9.63
2018-09-03T00:45:55.667Z,11.35
2018-09-03T01:00:50.200Z,9.50
2018-09-03T01:15:51.106Z,9.48
2018-09-03T01:30:50.760Z,8.95
2018-09-03T01:45:51.004Z,9.53
2018-09-03T02:00:51.246Z,9.85
2018-09-03T02:15:50.596Z,9.18
2018-09-03T02:30:51.059Z,9.73
2018-09-03T02:45:50.424Z,10.18
2018-09-03T03:00:50.979Z,10.63
2018-09-03T03:15:50.833Z,9.33
2018-09-03T03:30:50.531Z,10.00
2018-09-03T03:45:51.401Z,10.40
2018-09-03T04:00:50.544Z,10.70
2018-09-03T04:15:50.823Z,10.30
2018-09-03T04:30:50.908Z,11.00
2018-09-03T04:45:50.860Z,11.60
2018-09-03T05:00:50.875Z,11.90
2018-09-03T05:15:50.908Z,13.20
2018-09-03T05:30:50.772Z,13.65
2018-09-03T05:45:51.355Z,11.95
2018-09-03T06:00:51.274Z,12.73
2018-09-03T06:15:52.823Z,12.10
2018-09-03T06:30:50.674Z,11.73
2018-09-03T06:45:52.812Z,11.93
2018-09-03T07:00:50.664Z,13.60
2018-09-03T07:15:50.667Z,11.40
2018-09-03T07:30:51.000Z,9.93
2018-09-03T07:45:51.604Z,8.93
2018-09-03T08:00:50.998Z,8.90
2018-09-03T08:15:51.014Z,8.57
2018-09-03T08:30:50.601Z,8.10
2018-09-03T08:45:51.359Z,7.50
2018-09-03T09:00:51.336Z,7.97
2018-09-03T09:15:51.508Z,7.80
2018-09-03T09:30:50.856Z,7.70
2018-09-03T09:45:50.766Z,8.13
2018-09-03T10:00:55.793Z,7.87
2018-09-03T10:15:52.675Z,8.30
2018-09-03T10:30:54.152Z,8.87
2018-09-03T10:45:51.781Z,8.23
2018-09-03T11:00:51.086Z,8.43
2018-09-03T11:15:50.619Z,8.73
2018-09-03T11:30:51.035Z,7.77
2018-09-03T11:45:51.090Z,9.33
2018-09-03T12:00:50.613Z,9.50
2018-09-03T12:15:54.650Z,10.27
2018-09-03T12:30:50.935Z,10.93
2018-09-03T12:45:57.708Z,11.65
2018-09-03T13:00:53.248Z,13.50
2018-09-03T13:15:51.071Z,10.88
2018-09-03T13:30:52.578Z,11.80
2018-09-03T13:45:50.443Z,12.28
2018-09-03T14:00:50.926Z,11.50
2018-09-03T14:15:50.998Z,10.78
2018-09-03T14:30:50.335Z,12.15
2018-09-03T14:45:50.311Z,12.05
2018-09-03T15:00:50.719Z,11.60
2018-09-03T15:15:50.295Z,11.80
2018-09-03T15:30:50.996Z,11.08
2018-09-03T15:45:51.705Z,11.90
2018-09-03T16:00:50.993Z,11.38
2018-09-03T16:15:50.979Z,10.95
2018-09-03T16:30:50.520Z,10.60
2018-09-03T16:45:50.361Z,10.93
2018-09-03T17:00:49.882Z,11.40
2018-09-03T17:15:52.172Z,11.70
2018-09-03T17:30:52.513Z,13.13
2018-09-03T17:45:50.835Z,12.45
2018-09-03T18:00:50.821Z,14.10
2018-09-03T18:15:51.131Z,15.88
2018-09-03T18:30:51.261Z,14.30
2018-09-03T18:45:53.051Z,14.03
2018-09-03T19:00:53.188Z,12.55
2018-09-03T19:15:50.879Z,13.13
2018-09-03T19:30:50.447Z,15.93
2018-09-03T19:45:50.410Z,16.87
2018-09-03T20:00:50.610Z,15.53
2018-09-03T20:15:50.163Z,18.50
2018-09-03T20:30:50.926Z,15.00
2018-09-03T20:45:51.013Z,12.88
2018-09-03T21:00:51.162Z,12.78
2018-09-03T21:15:50.609Z,12.90
2018-09-03T21:30:50.162Z,11.68
2018-09-03T21:45:49.631Z,11.50
2018-09-03T22:00:50.354Z,12.05
2018-09-03T22:15:53.141Z,12.05
2018-09-03T22:30:50.543Z,12.13
2018-09-03T22:45:50.471Z,12.00
2018-09-03T23:00:52.103Z,12.78
2018-09-03T23:15:51.372Z,11.90
2018-09-03T23:30:50.865Z,11.43
2018-09-03T23:45:50.841Z,11.60
